Time;durP1;ratioP1;P1;durP2;ratioP2;P2;SDS_P1;SDS_P2;PMS_P1;PMS_P2;Temp;Humidity;BMP_temperature;BMP_pressure;BME280_temperature;BME280_humidity;BME280_pressure;Samples;Min_cycle;Max_cycle;Signal;HPM_P1;HPM_P2
2021/03/28 00:00:58;;;;;;;3.85;3.38;;;;;;;6.10;92.17;97586.03;5007179;28;20080;-48
2021/03/28 00:03:32;;;;;;;6.63;3.53;;;;;;;6.22;92.38;97582.66;5024203;28;20065;-48
2021/03/28 00:06:17;;;;;;;7.70;3.40;;;;;;;6.23;93.33;97588.75;5002300;28;20073;-46
2021/03/28 00:08:47;;;;;;;6.78;3.65;;;;;;;6.45;93.22;97586.56;5022088;28;20064;-48
2021/03/28 00:11:18;;;;;;;6.53;3.77;;;;;;;6.35;98.39;97583.63;4997977;28;20500;-48
2021/03/28 00:13:52;;;;;;;5.72;3.83;;;;;;;6.39;99.55;97579.91;5026588;28;20065;-50
2021/03/28 00:16:20;;;;;;;5.63;3.50;;;;;;;6.41;94.05;97582.44;4995669;28;20112;-52
2021/03/28 00:19:03;;;;;;;4.45;3.70;;;;;;;6.47;93.62;97581.22;5032615;28;20454;-47
2021/03/28 00:21:33;;;;;;;5.47;3.63;;;;;;;6.24;96.35;97583.44;4995870;28;20061;-51
2021/03/28 00:24:15;;;;;;;6.10;3.65;;;;;;;6.12;100.00;97594.63;5036404;28;20066;-49
2021/03/28 00:26:45;;;;;;;5.53;3.70;;;;;;;6.39;97.10;97595.63;4971365;28;20078;-46
2021/03/28 00:29:22;;;;;;;4.90;3.58;;;;;;;6.26;97.44;97601.66;5023319;28;20080;-51
2021/03/28 00:31:59;;;;;;;6.25;3.97;;;;;;;6.30;100.00;97590.94;4996017;28;20087;-47
2021/03/28 00:34:30;;;;;;;6.15;3.80;;;;;;;6.30;100.00;97588.31;5019800;28;20073;-50
2021/03/28 00:37:00;;;;;;;6.68;3.90;;;;;;;6.21;100.00;97595.88;4993373;28;20541;-51
2021/03/28 00:39:37;;;;;;;7.25;4.60;;;;;;;6.38;100.00;97585.25;5010042;28;20064;-50
2021/03/28 00:42:09;;;;;;;5.30;4.00;;;;;;;6.41;100.00;97585.06;5028699;28;20625;-51
2021/03/28 00:44:46;;;;;;;8.65;4.55;;;;;;;6.69;100.00;97586.03;5028388;28;20041;-48
2021/03/28 00:47:19;;;;;;;8.43;3.83;;;;;;;6.62;100.00;97585.56;5026443;28;20072;-51
2021/03/28 00:49:49;;;;;;;5.22;4.00;;;;;;;6.61;100.00;97589.13;5022588;28;20068;-49
2021/03/28 00:52:25;;;;;;;6.55;4.35;;;;;;;6.84;99.40;97575.44;5021751;28;20061;-49
2021/03/28 00:54:56;;;;;;;8.15;4.38;;;;;;;6.86;99.36;97577.97;4979213;28;20129;-51
2021/03/28 00:57:26;;;;;;;6.00;4.00;;;;;;;6.92;97.68;97581.97;5026948;28;20076;-50
2021/03/28 00:59:57;;;;;;;5.60;3.95;;;;;;;6.81;100.00;97580.91;4984896;28;20073;-50
2021/03/28 01:02:28;;;;;;;7.38;4.40;;;;;;;6.70;100.00;97579.84;5020885;28;20069;-46
2021/03/28 01:05:29;;;;;;;6.22;3.72;;;;;;;6.62;100.00;97580.31;4987261;28;20076;-51
2021/03/28 01:08:03;;;;;;;8.73;4.00;;;;;;;6.71;100.00;97576.28;5022486;28;20103;-48
2021/03/28 01:10:55;;;;;;;5.07;3.95;;;;;;;6.65;100.00;97580.97;4992268;28;20077;-48
2021/03/28 01:13:52;;;;;;;7.95;4.60;;;;;;;6.71;100.00;97576.28;5003651;28;20457;-46
2021/03/28 01:16:43;;;;;;;4.57;3.55;;;;;;;6.77;100.00;97568.88;5032770;28;20080;-50
2021/03/28 01:20:09;;;;;;;6.22;4.20;;;;;;;6.65;100.00;97575.72;4980581;28;20061;-46
2021/03/28 01:22:51;;;;;;;7.43;4.03;;;;;;;6.61;100.00;97574.22;5022054;28;20118;-47
2021/03/28 01:25:45;;;;;;;5.20;3.83;;;;;;;6.62;100.00;97568.03;4998373;28;20515;-47
2021/03/28 01:28:18;;;;;;;6.88;4.00;;;;;;;6.62;100.00;97572.44;5011740;28;20122;-52
2021/03/28 01:30:49;;;;;;;5.13;3.92;;;;;;;6.73;100.00;97566.56;4990608;28;20065;-52
2021/03/28 01:33:24;;;;;;;7.30;3.70;;;;;;;6.71;100.00;97565.78;5029667;28;20515;-49
2021/03/28 01:36:03;;;;;;;8.25;4.20;;;;;;;6.80;100.00;97560.00;4984234;28;20074;-53
2021/03/28 01:38:35;;;;;;;6.45;4.20;;;;;;;6.88;100.00;97562.97;5036511;28;20077;-46
2021/03/28 01:41:06;;;;;;;6.72;4.20;;;;;;;6.66;100.00;97566.06;4992169;28;20507;-48
2021/03/28 01:43:41;;;;;;;8.10;4.00;;;;;;;6.64;100.00;97562.69;5036294;28;20069;-48
2021/03/28 01:46:13;;;;;;;7.75;4.18;;;;;;;6.88;100.00;97555.97;4996308;28;20080;-52
2021/03/28 01:48:46;;;;;;;6.47;4.15;;;;;;;6.80;100.00;97555.59;5029091;28;20546;-53
2021/03/28 01:51:35;;;;;;;6.18;3.72;;;;;;;6.83;100.00;97552.78;4992562;28;20076;-46
2021/03/28 01:54:06;;;;;;;7.05;3.85;;;;;;;6.77;100.00;97554.94;5016859;28;20072;-51
2021/03/28 01:56:40;;;;;;;5.07;3.80;;;;;;;6.77;100.00;97553.16;4999544;28;21220;-50
2021/03/28 01:59:21;;;;;;;5.13;4.00;;;;;;;6.83;100.00;97544.06;5034383;28;20072;-48
2021/03/28 02:01:52;;;;;;;4.93;3.70;;;;;;;6.84;100.00;97549.22;4990585;28;20083;-52
2021/03/28 02:04:24;;;;;;;7.90;3.92;;;;;;;6.79;100.00;97547.84;5029521;28;20079;-52
2021/03/28 02:07:14;;;;;;;6.85;3.90;;;;;;;6.77;100.00;97557.56;4993520;28;20061;-49
2021/03/28 02:09:50;;;;;;;5.55;3.33;;;;;;;6.57;100.00;97553.53;5032522;28;20061;-47
2021/03/28 02:12:21;;;;;;;5.97;3.70;;;;;;;6.65;100.00;97552.13;5000898;28;20066;-51
2021/03/28 02:15:06;;;;;;;6.00;4.50;;;;;;;6.59;100.00;97552.50;5041417;28;20079;-48
2021/03/28 02:17:46;;;;;;;4.68;3.30;;;;;;;6.60;100.00;97548.94;5002227;28;20089;-46
2021/03/28 02:20:37;;;;;;;7.53;3.90;;;;;;;6.56;100.00;97544.81;5026598;28;20092;-52
2021/03/28 02:23:41;;;;;;;6.38;3.85;;;;;;;6.51;100.00;97548.69;5023206;28;20103;-48
2021/03/28 02:26:20;;;;;;;4.90;3.30;;;;;;;6.44;100.00;97548.19;5014540;28;21578;-48
2021/03/28 02:28:54;;;;;;;4.43;3.42;;;;;;;6.69;100.00;97544.94;5034655;28;20069;-47
2021/03/28 02:31:29;;;;;;;6.88;3.47;;;;;;;6.72;100.00;97546.53;5002210;28;20441;-53
2021/03/28 02:34:01;;;;;;;6.80;4.03;;;;;;;6.56;100.00;97549.22;5021695;28;20100;-48
2021/03/28 02:36:35;;;;;;;3.90;3.28;;;;;;;6.56;100.00;97549.22;5026750;28;20081;-48
2021/03/28 02:39:21;;;;;;;6.70;3.72;;;;;;;6.62;99.60;97547.06;5027414;28;20448;-48
2021/03/28 02:42:09;;;;;;;8.43;3.50;;;;;;;6.82;96.60;97545.88;5013563;28;20085;-49
2021/03/28 02:44:54;;;;;;;3.85;3.20;;;;;;;6.68;98.46;97545.03;5032667;28;20091;-55
2021/03/28 02:47:39;;;;;;;7.63;3.63;;;;;;;6.74;98.59;97548.09;5001915;28;20073;-54
2021/03/28 02:50:39;;;;;;;5.30;3.40;;;;;;;6.74;95.90;97542.84;5029873;28;21527;-50
2021/03/28 02:53:14;;;;;;;7.10;3.80;;;;;;;6.67;96.97;97554.66;4982987;28;20375;-52
2021/03/28 02:55:54;;;;;;;4.32;3.45;;;;;;;6.59;97.01;97552.50;5028406;28;20077;-55
2021/03/28 02:58:51;;;;;;;6.10;3.65;;;;;;;6.63;98.91;97550.53;4996503;28;20073;-53
2021/03/28 03:01:30;;;;;;;3.67;3.25;;;;;;;6.53;99.13;97557.28;5006645;28;20069;-54
2021/03/28 03:04:26;;;;;;;6.78;3.20;;;;;;;6.65;100.00;97557.38;4987240;28;20451;-48
2021/03/28 03:07:15;;;;;;;6.55;3.50;;;;;;;6.53;100.00;97554.66;5029426;28;20076;-51
2021/03/28 03:10:00;;;;;;;5.25;3.35;;;;;;;6.63;100.00;97547.91;4991093;28;20120;-47
2021/03/28 03:12:42;;;;;;;5.72;3.70;;;;;;;6.49;100.00;97546.13;5020168;28;20065;-47
2021/03/28 03:15:24;;;;;;;4.22;3.30;;;;;;;6.48;100.00;97549.69;5009339;28;20076;-46
2021/03/28 03:18:25;;;;;;;8.80;3.70;;;;;;;6.66;98.79;97552.97;5023138;28;20088;-46
2021/03/28 03:21:30;;;;;;;6.93;3.90;;;;;;;6.69;97.96;97555.41;5029258;28;20072;-48
2021/03/28 03:24:37;;;;;;;6.15;3.80;;;;;;;6.59;98.83;97559.53;4994185;28;20503;-50
2021/03/28 03:27:52;;;;;;;4.85;3.53;;;;;;;6.57;100.00;97550.91;5012818;28;20066;-46
2021/03/28 03:31:04;;;;;;;4.18;3.45;;;;;;;6.77;100.00;97560.19;4982311;28;20646;-48
2021/03/28 03:34:11;;;;;;;4.47;3.58;;;;;;;6.87;98.62;97561.31;5023935;28;20064;-52
2021/03/28 03:37:02;;;;;;;5.28;3.65;;;;;;;6.51;100.00;97564.41;5029930;28;20119;-47
2021/03/28 03:39:40;;;;;;;4.18;3.17;;;;;;;6.63;100.00;97555.78;5001688;28;20566;-49
2021/03/28 03:42:23;;;;;;;6.28;3.85;;;;;;;6.77;96.94;97554.94;5032708;28;20609;-47
2021/03/28 03:45:24;;;;;;;6.72;3.67;;;;;;;6.93;94.46;97555.69;4998027;28;20087;-50
2021/03/28 03:47:56;;;;;;;7.05;3.17;;;;;;;6.66;100.00;97563.47;5024930;28;20079;-49
2021/03/28 03:50:53;;;;;;;6.13;3.55;;;;;;;6.75;100.00;97556.81;4999257;28;20089;-46
2021/03/28 03:53:28;;;;;;;7.50;3.67;;;;;;;6.92;96.06;97566.25;5019322;28;20496;-46
2021/03/28 03:56:04;;;;;;;7.40;3.30;;;;;;;6.84;96.64;97570.19;4989578;28;20075;-48
2021/03/28 03:58:35;;;;;;;5.28;3.30;;;;;;;6.63;100.00;97563.66;5024478;28;20057;-53
2021/03/28 04:01:19;;;;;;;7.28;3.58;;;;;;;6.38;100.00;97572.13;4996372;28;20539;-47
2021/03/28 04:04:00;;;;;;;4.22;3.83;;;;;;;6.74;100.00;97566.44;5025319;28;20076;-49
2021/03/28 04:06:55;;;;;;;9.02;3.50;;;;;;;6.66;100.00;97564.28;4990167;28;20468;-47
2021/03/28 04:09:28;;;;;;;6.78;3.83;;;;;;;6.26;100.00;97571.06;5030017;28;20068;-50
2021/03/28 04:12:17;;;;;;;6.47;3.47;;;;;;;6.31;100.00;97570.81;4992436;28;20464;-48
2021/03/28 04:15:07;;;;;;;5.88;3.72;;;;;;;6.43;100.00;97572.69;5024756;28;20550;-47
2021/03/28 04:17:42;;;;;;;6.20;3.33;;;;;;;5.99;100.00;97578.78;5005944;28;20557;-45
2021/03/28 04:20:14;;;;;;;6.65;3.80;;;;;;;6.01;100.00;97579.53;5024988;28;20069;-49
2021/03/28 04:22:53;;;;;;;4.93;3.50;;;;;;;5.88;100.00;97573.28;5000463;28;20155;-48
2021/03/28 04:25:41;;;;;;;8.75;3.80;;;;;;;5.88;100.00;97578.50;5028957;28;20072;-47
2021/03/28 04:28:31;;;;;;;5.57;4.00;;;;;;;5.80;100.00;97575.50;4992602;28;20080;-51
2021/03/28 04:31:20;;;;;;;5.75;3.78;;;;;;;5.74;100.00;97576.69;5021161;28;20126;-47
2021/03/28 04:33:49;;;;;;;6.45;3.97;;;;;;;5.99;100.00;97583.16;5020081;28;20069;-48
2021/03/28 04:36:20;;;;;;;6.20;3.70;;;;;;;5.64;100.00;97584.22;5011316;28;20096;-48
2021/03/28 04:39:05;;;;;;;7.10;3.88;;;;;;;5.64;100.00;97589.47;5024552;28;20635;-49
2021/03/28 04:42:10;;;;;;;6.25;4.15;;;;;;;5.71;100.00;97603.91;5004171;28;20481;-48
2021/03/28 04:45:26;;;;;;;7.18;3.60;;;;;;;5.69;100.00;97589.19;4980472;28;20468;-49
2021/03/28 04:48:20;;;;;;;8.18;3.72;;;;;;;5.50;100.00;97599.84;5001901;28;20159;-51
2021/03/28 04:51:13;;;;;;;6.40;3.67;;;;;;;5.85;100.00;97604.84;5027822;28;20096;-49
2021/03/28 04:54:05;;;;;;;4.10;3.47;;;;;;;5.77;100.00;97607.91;5000200;28;20095;-49
2021/03/28 04:56:54;;;;;;;7.95;3.85;;;;;;;5.76;100.00;97608.84;5022527;28;20554;-49
2021/03/28 04:59:55;;;;;;;7.65;3.85;;;;;;;5.75;100.00;97617.66;4985571;28;21572;-47
2021/03/28 05:02:36;;;;;;;;;;;;;;;5.57;100.00;97616.88;5000978;28;20870;-46
2021/03/28 05:05:08;;;;;;;;;;;;;;;5.66;100.00;97619.00;5022643;28;20307;-48
2021/03/28 05:07:56;;;;;;;5.03;4.07;;;;;;;5.65;100.00;97619.94;4990314;28;19965;-47
2021/03/28 05:10:33;;;;;;;6.43;3.80;;;;;;;5.58;100.00;97617.75;5026287;28;20074;-47
2021/03/28 05:13:31;;;;;;;6.47;3.95;;;;;;;5.32;100.00;97634.84;4997535;28;20073;-48
2021/03/28 05:16:47;;;;;;;5.20;4.22;;;;;;;5.20;100.00;97639.84;5042296;28;20071;-46
2021/03/28 05:20:07;;;;;;;5.30;3.50;;;;;;;5.59;100.00;97629.91;5004468;28;20072;-47
2021/03/28 05:23:11;;;;;;;4.43;3.40;;;;;;;5.46;100.00;97635.78;4976461;28;20191;-48
2021/03/28 05:26:10;;;;;;;5.75;3.25;;;;;;;5.92;100.00;97635.91;4984853;28;20554;-46
2021/03/28 05:29:17;;;;;;;4.82;4.20;;;;;;;6.32;100.00;97644.06;4973600;28;22346;-51
2021/03/28 05:32:29;;;;;;;5.38;3.85;;;;;;;6.17;100.00;97648.44;5023189;28;20583;-47
2021/03/28 05:35:17;;;;;;;5.18;3.58;;;;;;;6.04;100.00;97643.97;4965795;28;20467;-46
2021/03/28 05:38:11;;;;;;;4.05;3.33;;;;;;;6.16;100.00;97644.13;5031957;28;20183;-47
2021/03/28 05:40:55;;;;;;;5.63;3.80;;;;;;;6.13;100.00;97651.31;5000748;28;20072;-50
2021/03/28 05:44:03;;;;;;;9.23;3.92;;;;;;;6.32;100.00;97654.53;5020265;28;20072;-49
2021/03/28 05:46:44;;;;;;;9.32;4.22;;;;;;;6.22;100.00;97661.25;5026744;28;20076;-49
2021/03/28 05:49:20;;;;;;;7.13;3.83;;;;;;;6.09;100.00;97662.88;4991710;28;20473;-48
2021/03/28 05:52:01;;;;;;;6.97;3.40;;;;;;;6.40;100.00;97656.72;5021041;28;20566;-49
2021/03/28 05:55:04;;;;;;;7.35;3.80;;;;;;;6.33;100.00;97664.13;4992295;28;20070;-49
2021/03/28 05:58:10;;;;;;;8.18;5.95;;;;;;;6.13;100.00;97670.50;5018997;28;20066;-48
2021/03/28 06:00:46;;;;;;;8.25;5.90;;;;;;;6.10;100.00;97670.66;4978656;28;20058;-49
2021/03/28 06:03:49;;;;;;;6.10;4.63;;;;;;;6.47;100.00;97668.56;5022958;28;20068;-48
2021/03/28 06:06:52;;;;;;;6.25;4.68;;;;;;;7.00;100.00;97669.75;4989279;28;20073;-52
2021/03/28 06:09:58;;;;;;;7.00;4.70;;;;;;;7.37;100.00;97665.72;4968424;28;20065;-47
2021/03/28 06:12:35;;;;;;;6.07;4.40;;;;;;;7.66;100.00;97675.34;5016853;28;20076;-49
2021/03/28 06:15:32;;;;;;;5.53;3.75;;;;;;;7.60;100.00;97681.81;5006299;28;20077;-44
2021/03/28 06:18:50;;;;;;;5.53;3.60;;;;;;;8.10;96.20;97685.66;5025384;28;20068;-48
2021/03/28 06:21:37;;;;;;;5.47;3.28;;;;;;;8.47;91.91;97673.59;4964985;28;20069;-46
2021/03/28 06:24:29;;;;;;;5.22;3.28;;;;;;;8.44;93.33;97681.69;5015381;28;20452;-50
2021/03/28 06:27:40;;;;;;;6.45;3.25;;;;;;;8.66;90.40;97685.53;4981577;28;20477;-49
2021/03/28 06:30:32;;;;;;;5.72;3.53;;;;;;;8.46;94.89;97687.69;5015080;28;20089;-46
2021/03/28 06:33:36;;;;;;;7.15;3.10;;;;;;;8.59;92.25;97692.97;4987358;28;21188;-50
2021/03/28 06:36:38;;;;;;;53.40;23.23;;;;;;;7.98;98.77;97699.56;4963690;28;20066;-51
2021/03/28 06:39:37;;;;;;;59.88;31.52;;;;;;;8.18;95.35;97708.78;5024478;28;20447;-49
2021/03/28 06:42:47;;;;;;;7.65;4.20;;;;;;;8.27;97.20;97702.94;4992913;28;20810;-50
2021/03/28 06:45:42;;;;;;;7.38;4.13;;;;;;;8.23;98.05;97707.56;4938693;28;20077;-48
2021/03/28 06:48:38;;;;;;;8.48;4.53;;;;;;;8.62;94.72;97713.81;4916458;28;20072;-48
2021/03/28 06:51:59;;;;;;;5.50;3.60;;;;;;;9.06;87.07;97710.00;5021664;28;20077;-49
2021/03/28 06:54:53;;;;;;;;;;;;;;;8.74;89.90;97728.78;4972907;28;20508;-48
2021/03/28 06:58:01;;;;;;;5.72;3.00;;;;;;;9.46;86.09;97721.25;4982806;28;19952;-48
2021/03/28 07:00:56;;;;;;;4.68;3.20;;;;;;;9.31;89.20;97724.09;5025094;28;20061;-51
2021/03/28 07:03:27;;;;;;;5.28;3.45;;;;;;;9.35;87.38;97731.66;4995943;28;20068;-51
2021/03/28 07:06:02;;;;;;;6.00;3.17;;;;;;;9.64;86.78;97719.13;5030315;28;20064;-52
2021/03/28 07:08:55;;;;;;;6.70;2.90;;;;;;;10.06;79.49;97724.09;4994981;28;20077;-48
2021/03/28 07:11:58;;;;;;;4.20;3.20;;;;;;;10.30;77.23;97722.34;5033562;28;21325;-47
2021/03/28 07:15:07;;;;;;;7.72;3.00;;;;;;;10.60;73.87;97711.34;4999153;28;20311;-50
2021/03/28 07:18:25;;;;;;;5.78;3.22;;;;;;;9.96;73.29;97711.56;4989153;28;20437;-53
2021/03/28 07:21:06;;;;;;;5.13;2.97;;;;;;;9.98;75.94;97714.09;5022839;28;20069;-49
2021/03/28 07:24:12;;;;;;;4.80;3.05;;;;;;;9.76;76.00;97714.78;4996751;28;20073;-47
2021/03/28 07:26:53;;;;;;;6.35;3.00;;;;;;;10.01;82.99;97705.94;5015731;28;20629;-55
2021/03/28 07:29:58;;;;;;;4.75;3.00;;;;;;;10.32;76.75;97703.75;4998927;28;20081;-49
2021/03/28 07:32:53;;;;;;;4.47;3.30;;;;;;;10.47;68.59;97718.47;5026470;28;20033;-50
2021/03/28 07:35:34;;;;;;;6.10;3.00;;;;;;;10.41;63.27;97716.28;4991771;28;20084;-48
2021/03/28 07:38:38;;;;;;;7.55;3.15;;;;;;;10.63;61.80;97713.75;5019397;28;20473;-50
2021/03/28 07:41:55;;;;;;;6.45;2.63;;;;;;;10.45;63.26;97712.47;5029319;28;20468;-51
2021/03/28 07:44:57;;;;;;;7.07;2.78;;;;;;;10.47;63.35;97715.00;4993915;28;21445;-52
2021/03/28 07:47:49;;;;;;;7.07;3.10;;;;;;;10.58;62.09;97722.97;5020961;28;20519;-55
2021/03/28 07:50:50;;;;;;;6.55;3.38;;;;;;;10.90;60.29;97712.63;5007368;28;20064;-54
2021/03/28 07:53:35;;;;;;;6.55;3.53;;;;;;;11.22;59.77;97711.97;5021255;28;20053;-53
2021/03/28 07:56:20;;;;;;;6.35;3.33;;;;;;;11.15;60.21;97707.19;4987194;28;20493;-49
2021/03/28 07:58:57;;;;;;;8.60;3.33;;;;;;;11.73;54.32;97708.88;5029700;28;20075;-49
2021/03/28 08:01:54;;;;;;;7.95;3.40;;;;;;;11.44;59.64;97705.88;4988520;28;20057;-47
2021/03/28 08:04:50;;;;;;;11.77;3.40;;;;;;;10.54;61.33;97708.31;4981625;28;20069;-50
2021/03/28 08:07:55;;;;;;;9.88;3.30;;;;;;;11.38;55.00;97709.84;4991754;28;20050;-51
2021/03/28 08:10:52;;;;;;;9.63;3.03;;;;;;;11.48;58.03;97713.44;4988498;28;20528;-48
2021/03/28 08:14:04;;;;;;;6.60;3.00;;;;;;;11.20;57.61;97705.97;5038191;28;20549;-45
2021/03/28 08:16:40;;;;;;;8.50;3.03;;;;;;;11.68;56.51;97703.97;4996709;28;20075;-51
2021/03/28 08:19:46;;;;;;;7.50;3.22;;;;;;;12.02;51.05;97706.59;5028353;28;20073;-49
2021/03/28 08:22:21;;;;;;;7.53;3.30;;;;;;;12.47;54.29;97702.03;4983399;28;20358;-53
2021/03/28 08:25:19;;;;;;;7.43;2.90;;;;;;;11.80;59.49;97710.06;5027082;28;20069;-52
2021/03/28 08:28:09;;;;;;;6.55;3.78;;;;;;;12.84;54.44;97709.59;5020651;28;20076;-56
2021/03/28 08:30:46;;;;;;;8.93;3.08;;;;;;;11.73;53.53;97722.09;4988289;28;20069;-51
2021/03/28 08:33:23;;;;;;;7.22;2.80;;;;;;;11.99;51.84;97728.00;5020078;28;20065;-50
2021/03/28 08:36:26;;;;;;;6.97;2.60;;;;;;;12.09;46.65;97716.56;4986518;28;20085;-52
2021/03/28 08:39:08;;;;;;;5.22;2.65;;;;;;;11.82;47.24;97718.72;5022052;28;20081;-55
2021/03/28 08:41:54;;;;;;;6.85;2.63;;;;;;;12.12;47.76;97720.78;4993476;28;20080;-46
2021/03/28 08:45:12;;;;;;;8.18;2.92;;;;;;;12.45;46.18;97717.19;5020582;28;20100;-53
2021/03/28 08:48:12;;;;;;;6.13;2.78;;;;;;;12.48;46.40;97714.28;4954706;28;20572;-48
2021/03/28 08:50:44;;;;;;;10.45;2.65;;;;;;;12.89;47.30;97715.31;5019345;28;20096;-48
2021/03/28 08:53:26;;;;;;;6.15;2.60;;;;;;;13.05;44.72;97713.06;4997559;28;20081;-51
2021/03/28 08:56:15;;;;;;;6.68;2.95;;;;;;;13.34;48.50;97707.13;5025647;28;20060;-53
2021/03/28 08:59:04;;;;;;;13.38;3.00;;;;;;;13.37;47.49;97706.88;5014443;28;20084;-49
2021/03/28 09:02:08;;;;;;;7.88;2.70;;;;;;;12.77;50.63;97703.13;4981454;28;20902;-52
2021/03/28 09:04:53;;;;;;;5.47;2.50;;;;;;;12.91;44.72;97715.22;4997661;28;20048;-49
2021/03/28 09:07:36;;;;;;;7.90;2.90;;;;;;;13.33;43.59;97707.28;5001194;28;20037;-47
2021/03/28 09:10:34;;;;;;;7.35;2.67;;;;;;;12.95;44.57;97701.56;4986734;28;20163;-49
2021/03/28 09:13:36;;;;;;;8.65;2.47;;;;;;;13.18;46.33;97712.88;4993077;28;20543;-55
2021/03/28 09:16:16;;;;;;;5.43;2.10;;;;;;;13.10;44.96;97720.63;4963790;28;20059;-53
2021/03/28 09:18:48;;;;;;;7.15;3.00;;;;;;;13.10;47.42;97714.50;4980129;28;20124;-50
2021/03/28 09:21:34;;;;;;;9.32;2.80;;;;;;;12.47;43.88;97719.72;5012550;28;20578;-50
2021/03/28 09:24:19;;;;;;;6.13;2.65;;;;;;;12.47;45.89;97715.25;4991139;28;20076;-49
2021/03/28 09:26:52;;;;;;;5.30;2.40;;;;;;;12.11;45.42;97709.34;5022748;28;20527;-47
2021/03/28 09:29:34;;;;;;;4.55;2.58;;;;;;;12.15;45.90;97709.94;4983892;28;20115;-47
2021/03/28 09:32:39;;;;;;;5.18;2.47;;;;;;;12.99;45.18;97703.00;5026873;28;20069;-50
2021/03/28 09:35:18;;;;;;;6.15;2.92;;;;;;;12.69;44.34;97716.13;5011726;28;21927;-51
2021/03/28 09:37:53;;;;;;;7.15;2.88;;;;;;;12.99;44.81;97710.09;5021470;28;20505;-52
2021/03/28 09:40:26;;;;;;;4.82;2.50;;;;;;;12.13;44.83;97711.03;5008593;28;20664;-48
2021/03/28 09:43:29;;;;;;;6.70;2.70;;;;;;;12.76;43.64;97706.72;5017590;28;20057;-49
2021/03/28 09:46:21;;;;;;;5.65;3.00;;;;;;;12.55;45.79;97693.47;5020431;28;20064;-52
2021/03/28 09:49:16;;;;;;;9.15;2.90;;;;;;;13.22;42.47;97701.06;4994857;28;20072;-54
2021/03/28 09:52:00;;;;;;;5.13;2.58;;;;;;;13.40;41.61;97689.88;5016602;28;20068;-52
2021/03/28 09:54:35;;;;;;;7.25;2.50;;;;;;;13.21;44.36;97690.56;4989962;28;20068;-49
2021/03/28 09:57:10;;;;;;;5.18;2.67;;;;;;;13.37;42.18;97692.78;5017358;28;20084;-51
2021/03/28 10:00:25;;;;;;;7.57;2.58;;;;;;;13.41;42.74;97689.75;4990365;28;20077;-48
2021/03/28 10:03:04;;;;;;;7.13;2.83;;;;;;;13.57;41.57;97683.13;5018971;28;20065;-49
2021/03/28 10:05:33;;;;;;;6.88;2.63;;;;;;;14.23;40.93;97684.28;4985847;28;20127;-48
2021/03/28 10:08:07;;;;;;;4.53;2.35;;;;;;;13.66;41.20;97684.97;5023712;28;20311;-52
2021/03/28 10:10:44;;;;;;;9.65;3.00;;;;;;;13.48;41.35;97679.44;4991812;28;20081;-51
2021/03/28 10:13:30;;;;;;;8.50;2.67;;;;;;;13.52;42.30;97680.84;5019747;28;20073;-52
2021/03/28 10:16:02;;;;;;;8.27;2.67;;;;;;;13.35;42.26;97674.41;4997768;28;20061;-53
2021/03/28 10:18:54;;;;;;;4.70;2.17;;;;;;;13.51;42.48;97677.38;5026914;28;20104;-54
2021/03/28 10:21:36;;;;;;;5.63;2.50;;;;;;;13.75;41.83;97669.09;4997065;28;20104;-49
2021/03/28 10:24:14;;;;;;;6.32;2.40;;;;;;;13.99;40.21;97673.22;5022753;28;20080;-52
2021/03/28 10:26:50;;;;;;;4.97;2.30;;;;;;;13.28;42.59;97678.50;4983922;28;20089;-50
2021/03/28 10:29:43;;;;;;;7.10;2.17;;;;;;;13.13;42.94;97675.34;5029861;28;20790;-52
2021/03/28 10:32:19;;;;;;;6.50;2.60;;;;;;;13.28;42.76;97681.16;4988031;28;21525;-53
2021/03/28 10:35:15;;;;;;;6.43;2.42;;;;;;;13.23;41.79;97678.06;5030379;28;20467;-53
2021/03/28 10:38:01;;;;;;;4.70;2.70;;;;;;;12.99;41.79;97686.28;5024273;28;20538;-49
2021/03/28 10:40:34;;;;;;;6.88;2.53;;;;;;;14.05;38.99;97667.38;4998703;28;20064;-48
2021/03/28 10:43:11;;;;;;;6.90;2.47;;;;;;;14.11;38.45;97663.31;5031078;28;20445;-50
2021/03/28 10:46:15;;;;;;;5.03;2.60;;;;;;;13.71;38.83;97675.66;5001245;28;20475;-52
2021/03/28 10:49:17;;;;;;;6.72;2.60;;;;;;;14.59;37.88;97670.50;5018149;28;20510;-48
2021/03/28 10:52:17;;;;;;;5.70;2.60;;;;;;;14.20;40.99;97675.75;5001441;28;20467;-51
2021/03/28 10:55:29;;;;;;;7.28;3.30;;;;;;;14.11;38.67;97663.31;5020779;28;20063;-50
2021/03/28 10:58:49;;;;;;;3.50;2.20;;;;;;;14.09;39.60;97665.28;4998287;28;20675;-53
2021/03/28 11:01:51;;;;;;;5.22;2.33;;;;;;;13.86;39.31;97664.66;4996141;28;20076;-53
2021/03/28 11:05:01;;;;;;;3.65;1.90;;;;;;;13.90;39.84;97664.28;5014729;28;21395;-54
2021/03/28 11:07:47;;;;;;;4.78;2.50;;;;;;;14.12;38.88;97662.34;4987841;28;20547;-52
2021/03/28 11:10:21;;;;;;;6.00;3.10;;;;;;;14.28;41.11;97659.16;5023564;28;20077;-52
2021/03/28 11:13:06;;;;;;;5.82;2.67;;;;;;;14.33;40.11;97660.41;4996171;28;20073;-47
2021/03/28 11:15:45;;;;;;;5.68;2.60;;;;;;;13.52;39.21;97651.69;5025561;28;20061;-50
2021/03/28 11:18:32;;;;;;;5.88;2.88;;;;;;;13.44;38.87;97652.38;5007994;28;20475;-50
2021/03/28 11:21:04;;;;;;;7.63;3.15;;;;;;;14.61;38.01;97653.47;5021010;28;20091;-46
2021/03/28 11:24:23;;;;;;;6.35;2.70;;;;;;;14.18;43.95;97645.91;4992846;28;20551;-50
2021/03/28 11:27:40;;;;;;;4.93;2.42;;;;;;;14.29;40.95;97636.97;4958755;28;20375;-50
2021/03/28 11:30:19;;;;;;;8.35;2.67;;;;;;;14.70;42.24;97636.69;4959266;28;20069;-49
2021/03/28 11:32:57;;;;;;;4.65;2.45;;;;;;;14.39;40.04;97638.63;4997753;28;20073;-52
2021/03/28 11:35:29;;;;;;;6.57;2.85;;;;;;;14.81;38.94;97640.19;5028686;28;20076;-51
2021/03/28 11:38:30;;;;;;;7.15;3.08;;;;;;;14.81;38.09;97635.72;4991536;28;20090;-51
2021/03/28 11:41:33;;;;;;;5.05;2.53;;;;;;;14.86;37.43;97624.66;5022503;28;20464;-53
2021/03/28 11:44:27;;;;;;;6.72;2.92;;;;;;;14.32;37.94;97607.50;4997734;28;20215;-50
2021/03/28 11:47:01;;;;;;;5.38;2.40;;;;;;;14.20;40.53;97610.25;5021917;28;20079;-51
2021/03/28 11:49:33;;;;;;;4.80;2.60;;;;;;;14.04;38.65;97617.97;4975023;28;20076;-52
2021/03/28 11:52:20;;;;;;;6.82;2.88;;;;;;;14.22;38.93;97610.16;5006146;28;20065;-53
2021/03/28 11:55:10;;;;;;;6.20;2.55;;;;;;;14.41;37.68;97620.75;4993767;28;20071;-47
2021/03/28 11:57:39;;;;;;;4.63;2.60;;;;;;;14.81;37.08;97610.97;5024482;28;20053;-50
2021/03/28 12:00:40;;;;;;;4.30;2.25;;;;;;;14.15;39.88;97615.16;4995090;28;20444;-47
2021/03/28 12:03:41;;;;;;;5.85;2.60;;;;;;;14.38;39.59;97613.09;5035772;28;20065;-50
2021/03/28 12:06:42;;;;;;;4.15;2.40;;;;;;;14.43;38.22;97616.16;5024127;28;20145;-55
2021/03/28 12:09:23;;;;;;;5.90;2.58;;;;;;;14.44;39.50;97606.34;4991163;28;20080;-48
2021/03/28 12:11:51;;;;;;;5.40;2.50;;;;;;;14.56;38.43;97609.75;5025278;28;20145;-58
2021/03/28 12:14:29;;;;;;;6.43;2.42;;;;;;;14.78;38.43;97605.94;5000643;28;20103;-53
2021/03/28 12:17:25;;;;;;;6.80;2.70;;;;;;;14.91;38.05;97602.00;5031402;28;20057;-48
2021/03/28 12:20:12;;;;;;;6.55;2.60;;;;;;;14.37;40.68;97605.25;4996763;28;20061;-49
2021/03/28 12:22:51;;;;;;;7.90;2.35;;;;;;;14.80;38.84;97596.84;5019604;28;20072;-51
2021/03/28 12:25:23;;;;;;;5.82;2.78;;;;;;;14.83;40.21;97599.22;4998936;28;20531;-47
2021/03/28 12:28:19;;;;;;;5.13;2.60;;;;;;;15.20;38.55;97596.59;5023178;28;20084;-49
2021/03/28 12:30:48;;;;;;;5.80;2.45;;;;;;;14.66;38.21;97589.34;4987582;28;20455;-50
2021/03/28 12:33:16;;;;;;;6.32;2.70;;;;;;;14.87;38.93;97586.50;5022497;28;20076;-52
2021/03/28 12:35:57;;;;;;;7.30;2.50;;;;;;;14.57;38.14;97588.38;4987233;28;20069;-50
2021/03/28 12:38:42;;;;;;;7.93;2.65;;;;;;;14.47;39.87;97574.22;5025225;28;20078;-52
2021/03/28 12:41:18;;;;;;;3.85;2.17;;;;;;;14.88;41.25;97580.19;4988111;28;20084;-50
2021/03/28 12:43:49;;;;;;;7.32;2.53;;;;;;;14.86;39.41;97577.66;5032950;28;20057;-50
2021/03/28 12:46:59;;;;;;;4.25;2.30;;;;;;;15.22;40.59;97574.38;4996124;28;20184;-46
2021/03/28 12:49:42;;;;;;;8.02;2.80;;;;;;;15.26;39.44;97578.41;5001055;28;20119;-47
2021/03/28 12:52:24;;;;;;;5.05;2.50;;;;;;;14.72;38.01;97572.81;4996938;28;20101;-50
2021/03/28 12:55:09;;;;;;;6.45;2.78;;;;;;;15.02;39.11;97566.44;5020511;28;20069;-47
2021/03/28 12:57:39;;;;;;;5.40;2.47;;;;;;;15.12;39.04;97569.06;4987182;28;20073;-47
2021/03/28 13:00:35;;;;;;;4.68;2.38;;;;;;;15.28;39.67;97556.00;5027589;28;20068;-51
2021/03/28 13:03:13;;;;;;;5.53;2.30;;;;;;;15.34;40.40;97557.22;4986314;28;20072;-49
2021/03/28 13:06:05;;;;;;;4.72;2.60;;;;;;;15.41;38.22;97559.13;5029856;28;20085;-49
2021/03/28 13:08:40;;;;;;;5.80;2.60;;;;;;;15.06;37.45;97557.19;5021297;28;20445;-47
2021/03/28 13:11:08;;;;;;;6.13;2.92;;;;;;;15.25;37.06;97544.84;5015025;28;20065;-46